Terminal Aerodrome Forecast
Issued by NWS

Home | Current Version | Previous Version | Text Only | Print | Product List | Glossary On
Versions: 1 2 3 4 5 6 7 8 9 10 11 12 13 14 15 16 17 18 19 20 21 22 23 24 25 26 27 28 29 30 31 32 33 34
886
FTUS45 KBOU 081134
TAFAPA
TAF
KAPA 081134Z 0812/0912 28008KT P6SM BKN100
     FM081500 32012G20KT P6SM BKN110
     FM081700 33015G25KT P6SM BKN120
     FM082300 31011KT P6SM SCT150
     FM090300 23009KT P6SM SCT220=

USA.gov is the U.S. government's official web portal to all federal, state and local government web resources and services.